sensor_id;sensor_type;location;lat;lon;timestamp;P1;durP1;ratioP1;P2;durP2;ratioP2
77164;SDS011;66140;50.280;18.660;2023-04-06T05:00:16;62.60;;;26.55;;
77164;SDS011;66140;50.280;18.660;2023-04-06T05:02:42;55.20;;;28.13;;
77164;SDS011;66140;50.280;18.660;2023-04-06T05:05:07;60.83;;;28.42;;
77164;SDS011;66140;50.280;18.660;2023-04-06T05:07:33;73.55;;;31.33;;
77164;SDS011;66140;50.280;18.660;2023-04-06T05:09:59;79.97;;;31.60;;
77164;SDS011;66140;50.280;18.660;2023-04-06T05:12:24;82.72;;;33.58;;
77164;SDS011;66140;50.280;18.660;2023-04-06T05:14:52;81.25;;;32.75;;
77164;SDS011;66140;50.280;18.660;2023-04-06T05:17:18;86.63;;;32.25;;
77164;SDS011;66140;50.280;18.660;2023-04-06T05:19:44;78.53;;;34.20;;
77164;SDS011;66140;50.280;18.660;2023-04-06T05:22:10;76.93;;;29.58;;
77164;SDS011;66140;50.280;18.660;2023-04-06T05:24:36;73.75;;;29.20;;
77164;SDS011;66140;50.280;18.660;2023-04-06T05:27:01;74.00;;;30.15;;
77164;SDS011;66140;50.280;18.660;2023-04-06T05:29:27;82.75;;;31.58;;
77164;SDS011;66140;50.280;18.660;2023-04-06T05:31:52;81.45;;;29.52;;
77164;SDS011;66140;50.280;18.660;2023-04-06T05:34:18;72.32;;;28.17;;
77164;SDS011;66140;50.280;18.660;2023-04-06T05:36:43;73.28;;;28.65;;
77164;SDS011;66140;50.280;18.660;2023-04-06T05:39:09;68.85;;;29.17;;
77164;SDS011;66140;50.280;18.660;2023-04-06T05:41:34;71.38;;;27.40;;
77164;SDS011;66140;50.280;18.660;2023-04-06T05:44:00;63.42;;;26.42;;
77164;SDS011;66140;50.280;18.660;2023-04-06T05:46:26;64.10;;;26.55;;
77164;SDS011;66140;50.280;18.660;2023-04-06T05:48:51;56.92;;;26.75;;
77164;SDS011;66140;50.280;18.660;2023-04-06T05:51:16;56.00;;;26.63;;
77164;SDS011;66140;50.280;18.660;2023-04-06T05:53:42;63.47;;;27.80;;
77164;SDS011;66140;50.280;18.660;2023-04-06T05:56:07;60.58;;;26.02;;
77164;SDS011;66140;50.280;18.660;2023-04-06T05:58:33;46.25;;;21.17;;
77164;SDS011;66140;50.280;18.660;2023-04-06T06:00:59;46.25;;;20.25;;
77164;SDS011;66140;50.280;18.660;2023-04-06T06:03:25;58.58;;;25.25;;
77164;SDS011;66140;50.280;18.660;2023-04-06T06:06:03;57.55;;;25.73;;
77164;SDS011;66140;50.280;18.660;2023-04-06T06:08:29;55.95;;;25.25;;
77164;SDS011;66140;50.280;18.660;2023-04-06T06:10:55;72.53;;;27.48;;
77164;SDS011;66140;50.280;18.660;2023-04-06T06:13:22;63.90;;;27.58;;
77164;SDS011;66140;50.280;18.660;2023-04-06T06:15:48;55.50;;;25.08;;
77164;SDS011;66140;50.280;18.660;2023-04-06T06:18:14;54.28;;;27.65;;
77164;SDS011;66140;50.280;18.660;2023-04-06T06:20:39;29.93;;;15.53;;
77164;SDS011;66140;50.280;18.660;2023-04-06T06:23:05;28.58;;;16.10;;
77164;SDS011;66140;50.280;18.660;2023-04-06T06:25:30;29.00;;;15.75;;
77164;SDS011;66140;50.280;18.660;2023-04-06T06:27:56;38.10;;;19.77;;
77164;SDS011;66140;50.280;18.660;2023-04-06T06:30:22;46.50;;;19.02;;
77164;SDS011;66140;50.280;18.660;2023-04-06T06:32:47;43.58;;;18.90;;
77164;SDS011;66140;50.280;18.660;2023-04-06T06:35:13;30.92;;;15.88;;
77164;SDS011;66140;50.280;18.660;2023-04-06T06:37:38;30.85;;;15.20;;
77164;SDS011;66140;50.280;18.660;2023-04-06T06:40:04;32.20;;;15.57;;
77164;SDS011;66140;50.280;18.660;2023-04-06T06:42:30;34.30;;;15.65;;
77164;SDS011;66140;50.280;18.660;2023-04-06T06:44:55;23.60;;;12.13;;
77164;SDS011;66140;50.280;18.660;2023-04-06T06:47:21;19.65;;;9.65;;
77164;SDS011;66140;50.280;18.660;2023-04-06T06:49:46;21.80;;;10.80;;
77164;SDS011;66140;50.280;18.660;2023-04-06T06:52:11;29.48;;;12.15;;
77164;SDS011;66140;50.280;18.660;2023-04-06T06:54:37;22.47;;;9.17;;
77164;SDS011;66140;50.280;18.660;2023-04-06T06:57:02;12.17;;;6.47;;
77164;SDS011;66140;50.280;18.660;2023-04-06T06:59:28;18.77;;;9.00;;
77164;SDS011;66140;50.280;18.660;2023-04-06T07:01:53;16.63;;;7.53;;
77164;SDS011;66140;50.280;18.660;2023-04-06T07:04:18;17.93;;;7.47;;
77164;SDS011;66140;50.280;18.660;2023-04-06T07:06:44;15.05;;;7.25;;
77164;SDS011;66140;50.280;18.660;2023-04-06T07:09:09;12.00;;;5.47;;
77164;SDS011;66140;50.280;18.660;2023-04-06T07:11:35;29.58;;;12.07;;
77164;SDS011;66140;50.280;18.660;2023-04-06T07:14:00;20.10;;;8.87;;
77164;SDS011;66140;50.280;18.660;2023-04-06T07:16:26;19.15;;;10.02;;
77164;SDS011;66140;50.280;18.660;2023-04-06T07:18:51;12.48;;;5.72;;
77164;SDS011;66140;50.280;18.660;2023-04-06T07:21:17;15.23;;;7.13;;
77164;SDS011;66140;50.280;18.660;2023-04-06T07:23:42;16.13;;;9.18;;
77164;SDS011;66140;50.280;18.660;2023-04-06T07:26:08;18.17;;;8.23;;
77164;SDS011;66140;50.280;18.660;2023-04-06T07:28:34;18.10;;;7.75;;
77164;SDS011;66140;50.280;18.660;2023-04-06T07:30:59;10.30;;;6.32;;
77164;SDS011;66140;50.280;18.660;2023-04-06T07:33:24;14.45;;;6.38;;
77164;SDS011;66140;50.280;18.660;2023-04-06T07:35:54;10.80;;;6.10;;
77164;SDS011;66140;50.280;18.660;2023-04-06T07:38:19;14.27;;;6.88;;
77164;SDS011;66140;50.280;18.660;2023-04-06T07:40:45;14.90;;;6.95;;
77164;SDS011;66140;50.280;18.660;2023-04-06T07:43:10;12.10;;;6.65;;
77164;SDS011;66140;50.280;18.660;2023-04-06T07:45:36;13.57;;;7.47;;
77164;SDS011;66140;50.280;18.660;2023-04-06T07:48:01;14.98;;;8.25;;
77164;SDS011;66140;50.280;18.660;2023-04-06T07:50:27;13.40;;;8.27;;
77164;SDS011;66140;50.280;18.660;2023-04-06T07:52:52;15.10;;;8.02;;
77164;SDS011;66140;50.280;18.660;2023-04-06T07:55:18;16.35;;;8.38;;
77164;SDS011;66140;50.280;18.660;2023-04-06T07:57:43;25.08;;;8.07;;
77164;SDS011;66140;50.280;18.660;2023-04-06T08:00:09;15.43;;;7.18;;
77164;SDS011;66140;50.280;18.660;2023-04-06T08:02:35;13.13;;;6.90;;
77164;SDS011;66140;50.280;18.660;2023-04-06T08:05:00;12.00;;;6.65;;
77164;SDS011;66140;50.280;18.660;2023-04-06T08:07:26;15.90;;;8.15;;
77164;SDS011;66140;50.280;18.660;2023-04-06T08:09:51;14.98;;;6.72;;
77164;SDS011;66140;50.280;18.660;2023-04-06T08:12:17;25.52;;;7.25;;
77164;SDS011;66140;50.280;18.660;2023-04-06T08:14:42;13.80;;;7.93;;
77164;SDS011;66140;50.280;18.660;2023-04-06T08:17:07;12.80;;;7.13;;
77164;SDS011;66140;50.280;18.660;2023-04-06T08:19:33;16.45;;;6.32;;
77164;SDS011;66140;50.280;18.660;2023-04-06T08:21:58;16.03;;;7.00;;
77164;SDS011;66140;50.280;18.660;2023-04-06T08:24:23;10.35;;;6.68;;
77164;SDS011;66140;50.280;18.660;2023-04-06T08:26:49;17.23;;;7.72;;
77164;SDS011;66140;50.280;18.660;2023-04-06T08:29:16;10.23;;;6.05;;
77164;SDS011;66140;50.280;18.660;2023-04-06T08:31:41;8.95;;;6.25;;
77164;SDS011;66140;50.280;18.660;2023-04-06T08:34:07;14.70;;;6.57;;
77164;SDS011;66140;50.280;18.660;2023-04-06T08:36:32;12.57;;;6.40;;
77164;SDS011;66140;50.280;18.660;2023-04-06T08:38:58;13.10;;;6.28;;
77164;SDS011;66140;50.280;18.660;2023-04-06T08:41:25;14.52;;;7.07;;
77164;SDS011;66140;50.280;18.660;2023-04-06T08:43:53;14.05;;;6.82;;
77164;SDS011;66140;50.280;18.660;2023-04-06T08:46:23;10.05;;;6.43;;
77164;SDS011;66140;50.280;18.660;2023-04-06T08:48:58;15.30;;;7.05;;
77164;SDS011;66140;50.280;18.660;2023-04-06T08:51:25;16.17;;;7.70;;
77164;SDS011;66140;50.280;18.660;2023-04-06T08:53:52;12.80;;;6.53;;
77164;SDS011;66140;50.280;18.660;2023-04-06T08:56:21;11.73;;;5.70;;
77164;SDS011;66140;50.280;18.660;2023-04-06T08:58:47;11.95;;;6.28;;
77164;SDS011;66140;50.280;18.660;2023-04-06T09:01:14;14.18;;;7.20;;
77164;SDS011;66140;50.280;18.660;2023-04-06T09:03:42;10.93;;;6.35;;
77164;SDS011;66140;50.280;18.660;2023-04-06T09:06:09;11.70;;;6.13;;
77164;SDS011;66140;50.280;18.660;2023-04-06T09:08:38;12.98;;;6.75;;
77164;SDS011;66140;50.280;18.660;2023-04-06T09:11:05;10.90;;;6.78;;
77164;SDS011;66140;50.280;18.660;2023-04-06T09:13:30;9.80;;;6.10;;
77164;SDS011;66140;50.280;18.660;2023-04-06T09:16:02;11.07;;;5.88;;
77164;SDS011;66140;50.280;18.660;2023-04-06T09:18:30;12.57;;;6.20;;
77164;SDS011;66140;50.280;18.660;2023-04-06T09:21:00;11.07;;;6.38;;
77164;SDS011;66140;50.280;18.660;2023-04-06T09:23:27;10.23;;;5.95;;
77164;SDS011;66140;50.280;18.660;2023-04-06T09:26:08;10.60;;;5.47;;
77164;SDS011;66140;50.280;18.660;2023-04-06T09:31:14;7.75;;;4.97;;
77164;SDS011;66140;50.280;18.660;2023-04-06T09:33:43;8.23;;;5.00;;
77164;SDS011;66140;50.280;18.660;2023-04-06T09:38:37;9.30;;;6.32;;
77164;SDS011;66140;50.280;18.660;2023-04-06T09:41:03;9.93;;;5.22;;
77164;SDS011;66140;50.280;18.660;2023-04-06T09:43:32;11.40;;;6.53;;
77164;SDS011;66140;50.280;18.660;2023-04-06T09:45:57;9.55;;;5.63;;
77164;SDS011;66140;50.280;18.660;2023-04-06T09:48:25;10.43;;;5.88;;
77164;SDS011;66140;50.280;18.660;2023-04-06T09:50:55;11.00;;;6.78;;
77164;SDS011;66140;50.280;18.660;2023-04-06T09:53:29;8.88;;;5.38;;
77164;SDS011;66140;50.280;18.660;2023-04-06T09:55:57;10.43;;;5.97;;
77164;SDS011;66140;50.280;18.660;2023-04-06T09:58:30;10.57;;;5.57;;
77164;SDS011;66140;50.280;18.660;2023-04-06T10:01:07;10.63;;;5.63;;
77164;SDS011;66140;50.280;18.660;2023-04-06T10:06:13;11.50;;;6.55;;
77164;SDS011;66140;50.280;18.660;2023-04-06T10:08:40;11.00;;;5.85;;
77164;SDS011;66140;50.280;18.660;2023-04-06T10:11:16;10.82;;;5.78;;
77164;SDS011;66140;50.280;18.660;2023-04-06T10:13:44;9.52;;;6.20;;
77164;SDS011;66140;50.280;18.660;2023-04-06T10:16:13;12.75;;;6.93;;
77164;SDS011;66140;50.280;18.660;2023-04-06T10:18:44;11.00;;;6.00;;
77164;SDS011;66140;50.280;18.660;2023-04-06T10:21:16;10.23;;;5.85;;
77164;SDS011;66140;50.280;18.660;2023-04-06T10:23:49;11.40;;;6.10;;
77164;SDS011;66140;50.280;18.660;2023-04-06T10:26:19;9.43;;;5.53;;
77164;SDS011;66140;50.280;18.660;2023-04-06T10:28:46;11.15;;;6.00;;
77164;SDS011;66140;50.280;18.660;2023-04-06T10:31:14;11.57;;;6.63;;
77164;SDS011;66140;50.280;18.660;2023-04-06T10:33:58;12.48;;;7.28;;
77164;SDS011;66140;50.280;18.660;2023-04-06T10:36:25;11.25;;;5.75;;
77164;SDS011;66140;50.280;18.660;2023-04-06T10:38:56;11.88;;;6.78;;
77164;SDS011;66140;50.280;18.660;2023-04-06T10:41:23;21.50;;;7.70;;
77164;SDS011;66140;50.280;18.660;2023-04-06T10:43:56;14.75;;;7.43;;
77164;SDS011;66140;50.280;18.660;2023-04-06T10:46:26;13.95;;;6.78;;
77164;SDS011;66140;50.280;18.660;2023-04-06T10:48:55;13.68;;;7.72;;
77164;SDS011;66140;50.280;18.660;2023-04-06T10:51:24;14.65;;;6.38;;
77164;SDS011;66140;50.280;18.660;2023-04-06T10:53:54;16.58;;;8.40;;
77164;SDS011;66140;50.280;18.660;2023-04-06T10:56:22;13.30;;;7.03;;
77164;SDS011;66140;50.280;18.660;2023-04-06T10:58:53;10.88;;;6.68;;
77164;SDS011;66140;50.280;18.660;2023-04-06T11:01:23;10.13;;;5.78;;
77164;SDS011;66140;50.280;18.660;2023-04-06T11:03:56;7.00;;;4.80;;
77164;SDS011;66140;50.280;18.660;2023-04-06T11:06:26;11.23;;;6.75;;
77164;SDS011;66140;50.280;18.660;2023-04-06T11:08:54;11.93;;;5.15;;
77164;SDS011;66140;50.280;18.660;2023-04-06T11:11:20;13.15;;;6.80;;
77164;SDS011;66140;50.280;18.660;2023-04-06T11:13:51;6.15;;;3.80;;
77164;SDS011;66140;50.280;18.660;2023-04-06T11:16:19;12.27;;;8.55;;
77164;SDS011;66140;50.280;18.660;2023-04-06T11:18:52;12.23;;;7.45;;
77164;SDS011;66140;50.280;18.660;2023-04-06T11:24:31;11.60;;;6.90;;
77164;SDS011;66140;50.280;18.660;2023-04-06T11:26:55;9.88;;;5.78;;
77164;SDS011;66140;50.280;18.660;2023-04-06T11:29:28;11.10;;;6.28;;
77164;SDS011;66140;50.280;18.660;2023-04-06T11:32:02;7.97;;;5.47;;
77164;SDS011;66140;50.280;18.660;2023-04-06T11:34:29;14.60;;;6.80;;
77164;SDS011;66140;50.280;18.660;2023-04-06T11:37:29;13.77;;;6.70;;
77164;SDS011;66140;50.280;18.660;2023-04-06T11:39:51;9.10;;;4.53;;
77164;SDS011;66140;50.280;18.660;2023-04-06T11:42:21;8.77;;;4.82;;
77164;SDS011;66140;50.280;18.660;2023-04-06T11:44:49;7.28;;;4.57;;
77164;SDS011;66140;50.280;18.660;2023-04-06T11:47:17;7.03;;;3.85;;
77164;SDS011;66140;50.280;18.660;2023-04-06T11:49:43;7.40;;;3.25;;
77164;SDS011;66140;50.280;18.660;2023-04-06T11:54:48;8.77;;;4.30;;
77164;SDS011;66140;50.280;18.660;2023-04-06T11:57:15;5.20;;;3.65;;
77164;SDS011;66140;50.280;18.660;2023-04-06T11:59:41;7.80;;;3.95;;
77164;SDS011;66140;50.280;18.660;2023-04-06T12:02:07;8.32;;;4.45;;
77164;SDS011;66140;50.280;18.660;2023-04-06T12:04:36;5.07;;;3.97;;
77164;SDS011;66140;50.280;18.660;2023-04-06T12:07:02;9.77;;;4.57;;
77164;SDS011;66140;50.280;18.660;2023-04-06T12:09:32;7.65;;;3.95;;
77164;SDS011;66140;50.280;18.660;2023-04-06T12:11:59;7.70;;;4.38;;
77164;SDS011;66140;50.280;18.660;2023-04-06T12:14:25;6.88;;;4.15;;
77164;SDS011;66140;50.280;18.660;2023-04-06T12:16:51;9.15;;;4.43;;
77164;SDS011;66140;50.280;18.660;2023-04-06T12:19:16;6.82;;;4.20;;
77164;SDS011;66140;50.280;18.660;2023-04-06T12:21:47;7.75;;;3.53;;
77164;SDS011;66140;50.280;18.660;2023-04-06T12:24:13;7.13;;;4.47;;
77164;SDS011;66140;50.280;18.660;2023-04-06T12:26:38;5.45;;;3.97;;
77164;SDS011;66140;50.280;18.660;2023-04-06T12:29:06;7.05;;;4.30;;
77164;SDS011;66140;50.280;18.660;2023-04-06T12:31:32;11.30;;;4.40;;
77164;SDS011;66140;50.280;18.660;2023-04-06T12:34:11;5.85;;;3.53;;
77164;SDS011;66140;50.280;18.660;2023-04-06T12:36:40;7.40;;;3.33;;
77164;SDS011;66140;50.280;18.660;2023-04-06T12:39:07;9.60;;;4.43;;
77164;SDS011;66140;50.280;18.660;2023-04-06T12:41:32;8.50;;;4.68;;
77164;SDS011;66140;50.280;18.660;2023-04-06T12:43:59;9.32;;;4.80;;
77164;SDS011;66140;50.280;18.660;2023-04-06T12:46:24;6.18;;;3.88;;
77164;SDS011;66140;50.280;18.660;2023-04-06T12:48:51;8.70;;;4.90;;
77164;SDS011;66140;50.280;18.660;2023-04-06T12:53:43;5.97;;;3.30;;
77164;SDS011;66140;50.280;18.660;2023-04-06T12:56:12;10.23;;;5.25;;
77164;SDS011;66140;50.280;18.660;2023-04-06T12:58:42;10.70;;;5.78;;
77164;SDS011;66140;50.280;18.660;2023-04-06T13:01:08;13.98;;;6.07;;
77164;SDS011;66140;50.280;18.660;2023-04-06T13:03:35;11.45;;;5.07;;
77164;SDS011;66140;50.280;18.660;2023-04-06T13:06:04;7.82;;;5.55;;
77164;SDS011;66140;50.280;18.660;2023-04-06T13:08:35;10.02;;;5.55;;
77164;SDS011;66140;50.280;18.660;2023-04-06T13:11:03;9.75;;;6.38;;
77164;SDS011;66140;50.280;18.660;2023-04-06T13:13:31;10.10;;;6.07;;
77164;SDS011;66140;50.280;18.660;2023-04-06T13:16:01;9.80;;;6.72;;
77164;SDS011;66140;50.280;18.660;2023-04-06T13:20:57;9.55;;;3.30;;
77164;SDS011;66140;50.280;18.660;2023-04-06T13:23:24;14.70;;;6.93;;
77164;SDS011;66140;50.280;18.660;2023-04-06T13:26:00;10.55;;;6.55;;
77164;SDS011;66140;50.280;18.660;2023-04-06T13:28:30;12.45;;;6.25;;
77164;SDS011;66140;50.280;18.660;2023-04-06T13:30:57;11.63;;;7.20;;
77164;SDS011;66140;50.280;18.660;2023-04-06T13:33:23;16.67;;;5.88;;
77164;SDS011;66140;50.280;18.660;2023-04-06T13:35:49;7.18;;;4.50;;
77164;SDS011;66140;50.280;18.660;2023-04-06T13:38:15;11.02;;;6.13;;
77164;SDS011;66140;50.280;18.660;2023-04-06T13:40:41;7.68;;;5.15;;
77164;SDS011;66140;50.280;18.660;2023-04-06T13:43:07;9.88;;;6.63;;
77164;SDS011;66140;50.280;18.660;2023-04-06T13:45:33;8.68;;;6.40;;
77164;SDS011;66140;50.280;18.660;2023-04-06T13:47:58;7.93;;;5.32;;
77164;SDS011;66140;50.280;18.660;2023-04-06T13:50:27;9.75;;;5.93;;
77164;SDS011;66140;50.280;18.660;2023-04-06T13:52:53;6.85;;;5.25;;
77164;SDS011;66140;50.280;18.660;2023-04-06T13:55:18;7.85;;;4.78;;
77164;SDS011;66140;50.280;18.660;2023-04-06T13:57:44;10.25;;;4.88;;
77164;SDS011;66140;50.280;18.660;2023-04-06T14:00:10;9.68;;;4.47;;
77164;SDS011;66140;50.280;18.660;2023-04-06T14:02:37;7.60;;;4.68;;
77164;SDS011;66140;50.280;18.660;2023-04-06T14:05:03;8.90;;;5.45;;
77164;SDS011;66140;50.280;18.660;2023-04-06T14:07:29;4.65;;;3.53;;
77164;SDS011;66140;50.280;18.660;2023-04-06T14:09:56;11.82;;;5.18;;
77164;SDS011;66140;50.280;18.660;2023-04-06T14:12:24;9.20;;;6.47;;
77164;SDS011;66140;50.280;18.660;2023-04-06T14:14:53;12.02;;;6.30;;
77164;SDS011;66140;50.280;18.660;2023-04-06T14:19:44;12.40;;;6.70;;
77164;SDS011;66140;50.280;18.660;2023-04-06T14:22:10;9.18;;;6.20;;
77164;SDS011;66140;50.280;18.660;2023-04-06T14:24:35;11.40;;;7.10;;
77164;SDS011;66140;50.280;18.660;2023-04-06T14:27:01;8.70;;;5.80;;
77164;SDS011;66140;50.280;18.660;2023-04-06T14:29:27;10.73;;;6.05;;
77164;SDS011;66140;50.280;18.660;2023-04-06T14:31:53;12.48;;;6.07;;
77164;SDS011;66140;50.280;18.660;2023-04-06T14:34:24;11.75;;;6.90;;
77164;SDS011;66140;50.280;18.660;2023-04-06T14:36:55;11.38;;;6.50;;
77164;SDS011;66140;50.280;18.660;2023-04-06T14:39:21;11.25;;;6.93;;
77164;SDS011;66140;50.280;18.660;2023-04-06T14:41:46;10.80;;;6.18;;
77164;SDS011;66140;50.280;18.660;2023-04-06T14:44:12;13.77;;;6.68;;
77164;SDS011;66140;50.280;18.660;2023-04-06T14:46:39;13.85;;;8.15;;
77164;SDS011;66140;50.280;18.660;2023-04-06T14:49:05;15.05;;;7.65;;
77164;SDS011;66140;50.280;18.660;2023-04-06T14:51:30;12.35;;;7.40;;
77164;SDS011;66140;50.280;18.660;2023-04-06T14:53:59;12.13;;;7.20;;
77164;SDS011;66140;50.280;18.660;2023-04-06T14:56:25;11.95;;;7.63;;
77164;SDS011;66140;50.280;18.660;2023-04-06T14:58:51;14.13;;;7.07;;
77164;SDS011;66140;50.280;18.660;2023-04-06T15:01:19;17.63;;;8.00;;
77164;SDS011;66140;50.280;18.660;2023-04-06T15:03:45;15.55;;;7.97;;
77164;SDS011;66140;50.280;18.660;2023-04-06T15:06:12;17.75;;;8.85;;
77164;SDS011;66140;50.280;18.660;2023-04-06T15:08:42;14.88;;;8.48;;
77164;SDS011;66140;50.280;18.660;2023-04-06T15:11:07;19.90;;;8.43;;
77164;SDS011;66140;50.280;18.660;2023-04-06T15:13:33;16.58;;;9.70;;
77164;SDS011;66140;50.280;18.660;2023-04-06T15:15:59;15.05;;;7.45;;
77164;SDS011;66140;50.280;18.660;2023-04-06T15:18:27;15.17;;;8.00;;
77164;SDS011;66140;50.280;18.660;2023-04-06T15:20:53;15.73;;;8.65;;
77164;SDS011;66140;50.280;18.660;2023-04-06T15:23:19;14.65;;;8.30;;
77164;SDS011;66140;50.280;18.660;2023-04-06T15:25:45;13.63;;;7.82;;
77164;SDS011;66140;50.280;18.660;2023-04-06T15:28:11;10.98;;;6.95;;
77164;SDS011;66140;50.280;18.660;2023-04-06T15:30:36;18.30;;;9.57;;
77164;SDS011;66140;50.280;18.660;2023-04-06T15:33:03;14.30;;;9.70;;
77164;SDS011;66140;50.280;18.660;2023-04-06T15:37:56;15.07;;;8.80;;
77164;SDS011;66140;50.280;18.660;2023-04-06T15:40:23;18.13;;;10.38;;
77164;SDS011;66140;50.280;18.660;2023-04-06T15:42:49;16.98;;;8.55;;
77164;SDS011;66140;50.280;18.660;2023-04-06T15:45:18;22.80;;;11.48;;
77164;SDS011;66140;50.280;18.660;2023-04-06T15:47:46;19.58;;;12.90;;
77164;SDS011;66140;50.280;18.660;2023-04-06T15:50:12;18.98;;;11.50;;
77164;SDS011;66140;50.280;18.660;2023-04-06T15:52:38;18.80;;;11.18;;
77164;SDS011;66140;50.280;18.660;2023-04-06T15:55:05;22.42;;;11.70;;
77164;SDS011;66140;50.280;18.660;2023-04-06T15:57:31;17.40;;;11.50;;
77164;SDS011;66140;50.280;18.660;2023-04-06T15:59:58;13.00;;;8.68;;
77164;SDS011;66140;50.280;18.660;2023-04-06T16:02:23;13.93;;;8.57;;
77164;SDS011;66140;50.280;18.660;2023-04-06T16:04:49;14.10;;;9.07;;
77164;SDS011;66140;50.280;18.660;2023-04-06T16:07:19;16.35;;;9.70;;
77164;SDS011;66140;50.280;18.660;2023-04-06T16:09:44;20.98;;;11.60;;
77164;SDS011;66140;50.280;18.660;2023-04-06T16:12:10;18.87;;;10.00;;
77164;SDS011;66140;50.280;18.660;2023-04-06T16:14:35;24.00;;;11.23;;
77164;SDS011;66140;50.280;18.660;2023-04-06T16:17:01;22.88;;;11.07;;
77164;SDS011;66140;50.280;18.660;2023-04-06T16:19:27;18.65;;;10.13;;
77164;SDS011;66140;50.280;18.660;2023-04-06T16:21:53;17.58;;;10.23;;
77164;SDS011;66140;50.280;18.660;2023-04-06T16:24:18;20.52;;;10.38;;
77164;SDS011;66140;50.280;18.660;2023-04-06T16:26:43;24.23;;;12.23;;
77164;SDS011;66140;50.280;18.660;2023-04-06T16:29:11;18.80;;;10.48;;
77164;SDS011;66140;50.280;18.660;2023-04-06T16:31:36;15.77;;;9.35;;
77164;SDS011;66140;50.280;18.660;2023-04-06T16:34:02;16.83;;;9.93;;
77164;SDS011;66140;50.280;18.660;2023-04-06T16:36:28;15.70;;;9.40;;
77164;SDS011;66140;50.280;18.660;2023-04-06T16:38:55;18.10;;;10.40;;
77164;SDS011;66140;50.280;18.660;2023-04-06T16:41:21;23.45;;;11.90;;
77164;SDS011;66140;50.280;18.660;2023-04-06T16:43:47;21.77;;;9.73;;
77164;SDS011;66140;50.280;18.660;2023-04-06T16:46:13;16.90;;;8.75;;
77164;SDS011;66140;50.280;18.660;2023-04-06T16:48:39;13.55;;;7.55;;
77164;SDS011;66140;50.280;18.660;2023-04-06T16:51:08;17.67;;;9.65;;
77164;SDS011;66140;50.280;18.660;2023-04-06T16:53:34;21.90;;;9.63;;
77164;SDS011;66140;50.280;18.660;2023-04-06T16:56:05;15.90;;;7.90;;
77164;SDS011;66140;50.280;18.660;2023-04-06T16:58:32;15.20;;;8.52;;
77164;SDS011;66140;50.280;18.660;2023-04-06T17:00:58;11.77;;;7.70;;
77164;SDS011;66140;50.280;18.660;2023-04-06T17:03:26;13.30;;;8.02;;
77164;SDS011;66140;50.280;18.660;2023-04-06T17:05:52;16.80;;;9.13;;
77164;SDS011;66140;50.280;18.660;2023-04-06T17:08:17;16.50;;;8.60;;
77164;SDS011;66140;50.280;18.660;2023-04-06T17:10:45;17.48;;;10.45;;
77164;SDS011;66140;50.280;18.660;2023-04-06T17:13:10;18.70;;;10.15;;
77164;SDS011;66140;50.280;18.660;2023-04-06T17:15:38;18.15;;;10.73;;
77164;SDS011;66140;50.280;18.660;2023-04-06T17:18:04;20.17;;;10.25;;
77164;SDS011;66140;50.280;18.660;2023-04-06T17:20:29;21.75;;;11.00;;
77164;SDS011;66140;50.280;18.660;2023-04-06T17:22:58;20.70;;;11.38;;
77164;SDS011;66140;50.280;18.660;2023-04-06T17:25:24;17.88;;;9.35;;
77164;SDS011;66140;50.280;18.660;2023-04-06T17:27:49;22.50;;;12.32;;
77164;SDS011;66140;50.280;18.660;2023-04-06T17:30:15;17.38;;;9.45;;
77164;SDS011;66140;50.280;18.660;2023-04-06T17:32:41;23.73;;;11.63;;
77164;SDS011;66140;50.280;18.660;2023-04-06T17:35:10;23.08;;;13.38;;
77164;SDS011;66140;50.280;18.660;2023-04-06T17:37:36;17.52;;;10.63;;
77164;SDS011;66140;50.280;18.660;2023-04-06T17:40:02;25.77;;;13.57;;
77164;SDS011;66140;50.280;18.660;2023-04-06T17:42:34;15.38;;;10.40;;
77164;SDS011;66140;50.280;18.660;2023-04-06T17:45:00;18.15;;;10.52;;
77164;SDS011;66140;50.280;18.660;2023-04-06T17:47:26;43.17;;;18.15;;
77164;SDS011;66140;50.280;18.660;2023-04-06T17:49:56;36.83;;;18.83;;
77164;SDS011;66140;50.280;18.660;2023-04-06T17:52:25;23.70;;;12.35;;
77164;SDS011;66140;50.280;18.660;2023-04-06T17:55:01;22.95;;;12.95;;
77164;SDS011;66140;50.280;18.660;2023-04-06T17:59:58;21.10;;;13.00;;
77164;SDS011;66140;50.280;18.660;2023-04-06T18:02:29;23.42;;;13.48;;
77164;SDS011;66140;50.280;18.660;2023-04-06T18:04:54;26.05;;;14.95;;
77164;SDS011;66140;50.280;18.660;2023-04-06T18:07:20;23.05;;;14.23;;
77164;SDS011;66140;50.280;18.660;2023-04-06T18:09:45;28.10;;;15.93;;
77164;SDS011;66140;50.280;18.660;2023-04-06T18:12:11;24.70;;;15.38;;
77164;SDS011;66140;50.280;18.660;2023-04-06T18:14:40;27.05;;;14.38;;
77164;SDS011;66140;50.280;18.660;2023-04-06T18:17:06;21.75;;;13.23;;
77164;SDS011;66140;50.280;18.660;2023-04-06T18:19:35;29.17;;;14.95;;
77164;SDS011;66140;50.280;18.660;2023-04-06T18:22:00;28.80;;;13.73;;
77164;SDS011;66140;50.280;18.660;2023-04-06T18:27:02;24.02;;;13.02;;
77164;SDS011;66140;50.280;18.660;2023-04-06T18:29:37;20.83;;;12.38;;
77164;SDS011;66140;50.280;18.660;2023-04-06T18:32:04;24.30;;;14.48;;
77164;SDS011;66140;50.280;18.660;2023-04-06T18:34:30;24.35;;;12.45;;
77164;SDS011;66140;50.280;18.660;2023-04-06T18:36:55;20.60;;;11.65;;
77164;SDS011;66140;50.280;18.660;2023-04-06T18:39:21;19.40;;;11.93;;
77164;SDS011;66140;50.280;18.660;2023-04-06T18:41:47;25.17;;;13.80;;
77164;SDS011;66140;50.280;18.660;2023-04-06T18:44:13;23.90;;;14.18;;
77164;SDS011;66140;50.280;18.660;2023-04-06T18:46:44;19.77;;;12.77;;
77164;SDS011;66140;50.280;18.660;2023-04-06T18:49:10;24.23;;;12.85;;
77164;SDS011;66140;50.280;18.660;2023-04-06T18:51:41;20.73;;;11.88;;
77164;SDS011;66140;50.280;18.660;2023-04-06T18:56:32;24.00;;;11.90;;
77164;SDS011;66140;50.280;18.660;2023-04-06T18:58:58;21.52;;;11.05;;
77164;SDS011;66140;50.280;18.660;2023-04-06T19:01:25;23.05;;;11.43;;
77164;SDS011;66140;50.280;18.660;2023-04-06T19:06:21;30.25;;;15.77;;
77164;SDS011;66140;50.280;18.660;2023-04-06T19:08:57;31.63;;;14.25;;
77164;SDS011;66140;50.280;18.660;2023-04-06T19:11:23;36.90;;;15.70;;
77164;SDS011;66140;50.280;18.660;2023-04-06T19:13:55;20.48;;;11.25;;
77164;SDS011;66140;50.280;18.660;2023-04-06T19:16:20;23.42;;;12.25;;
77164;SDS011;66140;50.280;18.660;2023-04-06T19:18:51;24.38;;;12.18;;
77164;SDS011;66140;50.280;18.660;2023-04-06T19:21:17;33.45;;;16.35;;
77164;SDS011;66140;50.280;18.660;2023-04-06T19:23:44;39.15;;;17.42;;
77164;SDS011;66140;50.280;18.660;2023-04-06T19:26:11;33.72;;;12.98;;
77164;SDS011;66140;50.280;18.660;2023-04-06T19:28:37;39.83;;;18.90;;
77164;SDS011;66140;50.280;18.660;2023-04-06T19:31:04;37.53;;;19.58;;
77164;SDS011;66140;50.280;18.660;2023-04-06T19:33:31;32.67;;;16.52;;
77164;SDS011;66140;50.280;18.660;2023-04-06T19:35:57;30.73;;;15.73;;
77164;SDS011;66140;50.280;18.660;2023-04-06T19:38:22;31.10;;;16.10;;
77164;SDS011;66140;50.280;18.660;2023-04-06T19:40:51;33.70;;;16.02;;
77164;SDS011;66140;50.280;18.660;2023-04-06T19:43:16;29.27;;;15.07;;
77164;SDS011;66140;50.280;18.660;2023-04-06T19:45:42;32.85;;;16.42;;
77164;SDS011;66140;50.280;18.660;2023-04-06T19:48:08;22.58;;;13.32;;
77164;SDS011;66140;50.280;18.660;2023-04-06T19:50:33;24.42;;;14.13;;